X  Luk Metar data     EKYT Aalborg Airport
Temperatur
5°C Temperatur
4°C Dugpunkt
93% Fugtighed



Vind
9 M/S
20 MPT
32 KM/T
17 KNOB



210°
SSV
Nuværende forhold

Delvis skyet Delvis skyet
Tryk 1012.92 (hPa) - 29.91 (inHg)
Sigt 5 (mil) - 8 (km)
Lufthavn
Lufthavnskode EKYT

Lokation: Aalborg Airport
Afstand: 54 (km)

Metar:
EKYT 282320Z AUTO 21017KT 8000 FEW008/// BKN012/// BKN017/// OVC027/// 05/04 Q1013

Tid: 29-01-2022 00:20 CET